Time;durP1;ratioP1;P1;durP2;ratioP2;P2;SDS_P1;SDS_P2;PMS_P1;PMS_P2;Temp;Humidity;BMP_temperature;BMP_pressure;BME280_temperature;BME280_humidity;BME280_pressure;Samples;Min_cycle;Max_cycle;Signal;HPM_P1;HPM_P2
2021/03/16 16:38:33;;;;;;;5.10;3.85;;;;;;;;;;5018532;28;20868;-62
2021/03/16 16:41:46;;;;;;;5.25;3.17;;;;;;;25.40;53.19;101078.38;5064923;28;20365;-69
2021/03/16 16:44:12;;;;;;;7.93;3.00;;;;;;;25.22;nan;101084.00;5042108;28;20408;-65
2021/03/16 16:46:57;;;;;;;4.50;3.13;;;;;;;23.09;44.80;101082.16;5092954;27;20363;-63
2021/03/16 16:49:22;;;;;;;6.05;3.63;;;;;;;22.58;46.17;101075.03;5061916;28;20044;-64
2021/03/16 16:51:47;;;;;;;4.05;3.35;;;;;;;22.45;46.61;101081.97;5033843;28;20042;-63
2021/03/16 16:54:13;;;;;;;5.85;3.35;;;;;;;22.43;46.71;101091.00;5039116;28;20025;-64
2021/03/16 16:56:38;;;;;;;6.03;3.58;;;;;;;22.45;46.88;101084.66;5034675;28;20025;-64
2021/03/16 16:59:03;;;;;;;7.10;2.90;;;;;;;21.07;44.33;101088.69;5034213;28;20463;-62
2021/03/16 17:01:29;;;;;;;4.63;2.58;;;;;;;18.75;42.85;101091.03;5034310;28;20036;-61
2021/03/16 17:03:54;;;;;;;5.15;2.50;;;;;;;17.92;41.91;101087.63;5032671;28;20029;-62
2021/03/16 17:06:19;;;;;;;5.13;2.17;;;;;;;17.51;40.78;101091.56;5035880;28;20026;-62
2021/03/16 17:08:45;;;;;;;3.50;2.22;;;;;;;17.67;39.46;101097.31;5034216;28;20025;-62
2021/03/16 17:11:10;;;;;;;2.92;2.03;;;;;;;17.31;39.58;101095.75;5038161;28;20021;-62
2021/03/16 17:13:35;;;;;;;2.88;1.70;;;;;;;16.84;38.55;101100.69;5036800;28;20120;-63
2021/03/16 17:16:00;;;;;;;2.65;1.55;;;;;;;16.95;38.21;101103.91;5040876;28;20116;-62
2021/03/16 17:18:26;;;;;;;2.17;1.42;;;;;;;16.41;37.88;101108.94;5036760;28;20052;-62
2021/03/16 17:20:51;;;;;;;2.60;1.33;;;;;;;16.46;37.95;101112.34;5043531;28;20029;-63
2021/03/16 17:23:17;;;;;;;3.00;1.65;;;;;;;16.28;37.98;101111.91;5035462;28;20033;-62
2021/03/16 17:25:42;;;;;;;2.63;1.40;;;;;;;16.59;37.66;101114.66;5037911;28;20017;-62
2021/03/16 17:28:08;;;;;;;4.25;1.52;;;;;;;17.24;36.67;101110.19;5033269;28;20029;-62
2021/03/16 17:30:34;;;;;;;2.17;1.30;;;;;;;17.89;36.25;101111.72;5039221;28;20037;-64
2021/03/16 17:32:59;;;;;;;4.85;1.40;;;;;;;18.18;36.48;101112.59;5039918;28;20033;-61
2021/03/16 17:35:27;;;;;;;3.03;1.48;;;;;;;18.34;36.22;101108.47;5036476;28;20037;-65
2021/03/16 17:37:52;;;;;;;3.60;1.38;;;;;;;18.07;37.39;101111.13;5029415;28;20041;-63
2021/03/16 17:40:17;;;;;;;4.22;1.58;;;;;;;17.55;38.51;101113.69;5030757;28;20090;-62
2021/03/16 17:42:43;;;;;;;3.85;1.67;;;;;;;16.74;39.63;101124.03;5035318;28;20037;-62
2021/03/16 17:45:09;;;;;;;3.88;1.52;;;;;;;16.15;39.79;101121.13;5034440;28;20056;-62
2021/03/16 17:47:35;;;;;;;3.15;1.23;;;;;;;16.15;40.09;101123.78;5039488;28;20025;-62
2021/03/16 17:50:06;;;;;;;2.85;1.48;;;;;;;17.92;38.22;101122.31;5039798;28;20406;-62
2021/03/16 17:52:31;;;;;;;3.92;1.85;;;;;;;18.92;37.75;101124.25;5051762;28;20045;-62
2021/03/16 17:54:57;;;;;;;3.38;2.33;;;;;;;19.38;37.62;101126.13;5057322;28;20084;-62
2021/03/16 17:57:22;;;;;;;2.25;1.75;;;;;;;19.61;37.81;101133.25;5034418;28;20029;-61
2021/03/16 17:59:47;;;;;;;2.70;1.73;;;;;;;19.77;37.91;101129.97;5029779;28;20036;-62
2021/03/16 18:02:13;;;;;;;7.32;1.52;;;;;;;19.88;38.19;101133.94;5027019;28;20030;-62
2021/03/16 18:04:38;;;;;;;4.00;1.70;;;;;;;19.99;38.17;101133.53;5026575;28;20032;-61
2021/03/16 18:07:03;;;;;;;4.70;2.63;;;;;;;20.09;38.34;101136.69;5025814;28;20047;-61
2021/03/16 18:09:29;;;;;;;5.20;2.03;;;;;;;20.19;38.61;101133.63;5024687;28;20037;-61
2021/03/16 18:11:54;;;;;;;3.67;2.55;;;;;;;20.27;38.73;101136.84;5039175;28;20036;-61
2021/03/16 18:14:19;;;;;;;2.67;1.80;;;;;;;20.32;38.97;101129.50;5043044;28;20407;-62
2021/03/16 18:16:45;;;;;;;3.33;1.90;;;;;;;20.39;39.17;101130.09;5036651;28;20041;-62
2021/03/16 18:19:10;;;;;;;3.67;1.70;;;;;;;20.44;39.29;101133.44;5033301;28;20398;-62
2021/03/16 18:21:36;;;;;;;3.42;1.77;;;;;;;20.50;39.47;101134.97;5039337;28;20029;-62
2021/03/16 18:24:01;;;;;;;4.55;2.08;;;;;;;20.53;39.55;101137.53;5038111;28;20020;-61
2021/03/16 18:26:28;;;;;;;3.15;1.73;;;;;;;20.57;39.65;101135.59;5040874;28;20143;-62
2021/03/16 18:28:53;;;;;;;3.58;2.30;;;;;;;20.67;42.20;101133.38;5032259;28;20060;-62
2021/03/16 18:31:18;;;;;;;4.93;2.20;;;;;;;20.87;42.80;101138.69;5032985;28;20026;-61
2021/03/16 18:33:44;;;;;;;7.13;2.22;;;;;;;21.05;43.22;101143.31;5039637;28;20051;-60
2021/03/16 18:36:10;;;;;;;2.90;2.20;;;;;;;21.10;43.65;101130.56;5044262;28;20116;-62
2021/03/16 18:38:35;;;;;;;3.97;2.42;;;;;;;21.20;43.99;101134.56;5046664;28;20056;-62
2021/03/16 18:41:01;;;;;;;7.13;2.58;;;;;;;21.28;43.65;101128.84;5027846;28;20465;-60
2021/03/16 18:43:26;;;;;;;4.93;2.42;;;;;;;21.35;43.78;101133.00;5025531;28;20033;-60
2021/03/16 18:45:51;;;;;;;3.80;2.33;;;;;;;21.43;43.83;101131.72;5029911;28;20087;-60
2021/03/16 18:48:17;;;;;;;6.85;2.53;;;;;;;21.66;45.63;101128.81;5028678;28;20419;-59
2021/03/16 18:50:42;;;;;;;5.20;2.25;;;;;;;21.75;44.88;101122.16;5037695;28;20491;-59
2021/03/16 18:53:09;;;;;;;4.15;2.22;;;;;;;21.79;45.42;101128.25;5041622;28;20407;-60
2021/03/16 18:55:34;;;;;;;7.13;2.40;;;;;;;21.84;45.15;101128.88;5034897;28;20029;-60
2021/03/16 18:57:59;;;;;;;6.18;2.65;;;;;;;21.86;44.69;101129.69;5038139;28;20156;-60
2021/03/16 19:00:25;;;;;;;5.00;2.20;;;;;;;21.81;44.78;101123.69;5032326;28;20033;-60
2021/03/16 19:02:50;;;;;;;4.80;2.00;;;;;;;21.77;44.56;101124.75;5028668;28;20402;-60
2021/03/16 19:05:15;;;;;;;4.03;2.80;;;;;;;21.75;44.83;101121.28;5031646;28;20022;-60
2021/03/16 19:07:41;;;;;;;8.25;2.47;;;;;;;21.76;44.97;101125.72;5029478;28;20112;-60
2021/03/16 19:10:07;;;;;;;6.63;2.70;;;;;;;21.71;45.04;101131.25;5033680;28;20063;-60
2021/03/16 19:12:33;;;;;;;6.25;2.58;;;;;;;21.70;44.95;101124.16;5034896;28;20047;-63
2021/03/16 19:14:58;;;;;;;6.13;2.50;;;;;;;21.69;44.94;101126.91;5038927;28;20028;-63
2021/03/16 19:17:23;;;;;;;8.25;2.20;;;;;;;21.66;44.87;101127.94;5034525;28;20516;-63
2021/03/16 19:19:49;;;;;;;4.93;2.53;;;;;;;21.64;44.79;101136.06;5037461;28;20410;-63
2021/03/16 19:22:14;;;;;;;4.00;2.63;;;;;;;21.63;44.78;101134.34;5036562;28;20033;-63
2021/03/16 19:24:39;;;;;;;2.80;2.60;;;;;;;21.63;44.92;101133.47;5036077;28;20025;-63
2021/03/16 19:27:05;;;;;;;5.95;3.42;;;;;;;21.62;44.82;101134.41;5034554;28;20025;-63
2021/03/16 19:29:30;;;;;;;3.42;2.17;;;;;;;21.61;44.85;101130.00;5031386;28;20056;-63
2021/03/16 19:31:55;;;;;;;4.95;2.47;;;;;;;21.60;44.78;101134.47;5037729;28;20021;-63
2021/03/16 19:34:22;;;;;;;6.07;2.10;;;;;;;21.60;44.82;101126.44;5051393;28;20029;-63
2021/03/16 19:36:47;;;;;;;3.05;2.58;;;;;;;21.60;44.94;101134.47;5033912;28;20029;-63
2021/03/16 19:39:12;;;;;;;4.53;2.80;;;;;;;21.59;44.78;101143.47;5037585;28;20040;-63
2021/03/16 19:41:38;;;;;;;3.15;2.90;;;;;;;21.59;44.80;101145.28;5037857;28;20042;-63
2021/03/16 19:44:03;;;;;;;4.55;2.30;;;;;;;21.58;44.79;101144.44;5035370;28;20036;-63
2021/03/16 19:46:29;;;;;;;4.35;2.63;;;;;;;21.58;44.82;101141.75;5033874;28;20372;-62
2021/03/16 19:48:56;;;;;;;5.00;2.63;;;;;;;21.57;45.10;101156.09;5033002;28;20044;-63
2021/03/16 19:51:21;;;;;;;4.03;2.55;;;;;;;21.57;44.94;101145.34;5037692;28;20035;-62
2021/03/16 19:53:46;;;;;;;5.22;2.42;;;;;;;21.58;44.89;101151.59;5037171;28;20033;-62
2021/03/16 19:56:11;;;;;;;3.20;1.77;;;;;;;21.58;44.84;101151.59;5030242;28;20431;-63
2021/03/16 19:58:37;;;;;;;3.10;2.35;;;;;;;21.56;44.76;101154.34;5035229;28;20487;-63
2021/03/16 20:01:02;;;;;;;4.70;2.67;;;;;;;21.57;44.88;101158.78;5034481;28;20017;-62
2021/03/16 20:03:28;;;;;;;3.47;2.20;;;;;;;21.56;45.02;101159.72;5048998;28;20029;-62
2021/03/16 20:05:53;;;;;;;4.30;2.80;;;;;;;21.56;44.97;101165.09;5032880;28;20025;-62
2021/03/16 20:08:18;;;;;;;4.45;2.58;;;;;;;21.57;45.06;101160.59;5032560;28;20128;-63
2021/03/16 20:10:44;;;;;;;4.50;2.47;;;;;;;21.56;44.94;101159.72;5033292;28;20625;-62
2021/03/16 20:13:09;;;;;;;5.35;2.75;;;;;;;21.56;45.14;101165.09;5036544;28;20032;-62
2021/03/16 20:15:34;;;;;;;6.03;2.22;;;;;;;21.55;45.15;101168.72;5027301;28;20430;-62
2021/03/16 20:18:00;;;;;;;5.68;3.40;;;;;;;21.56;45.08;101164.22;5031689;28;20176;-62
2021/03/16 20:20:25;;;;;;;3.20;2.40;;;;;;;21.55;45.09;101166.03;5037067;28;20053;-62
2021/03/16 20:22:51;;;;;;;3.45;2.85;;;;;;;21.54;45.12;101166.97;5029364;28;20033;-62
2021/03/16 20:25:18;;;;;;;6.00;2.17;;;;;;;21.56;45.08;101170.47;5040002;28;20055;-63
2021/03/16 20:27:43;;;;;;;3.47;2.25;;;;;;;21.56;44.97;101173.16;5034288;28;20167;-62
2021/03/16 20:30:10;;;;;;;3.28;2.20;;;;;;;21.55;45.20;101171.41;5037040;28;20653;-62
2021/03/16 20:32:36;;;;;;;4.05;2.55;;;;;;;21.57;45.10;101174.88;5036846;28;20107;-62
2021/03/16 20:35:02;;;;;;;2.42;2.10;;;;;;;21.54;45.16;101181.25;5031918;28;20469;-63
2021/03/16 20:37:28;;;;;;;3.45;2.65;;;;;;;21.57;45.27;101174.03;5050441;28;20032;-62
2021/03/16 20:39:54;;;;;;;7.18;2.47;;;;;;;21.55;45.19;101179.47;5036487;28;20034;-62
2021/03/16 20:42:19;;;;;;;2.80;2.15;;;;;;;21.56;45.26;101183.88;5036530;28;20025;-62
2021/03/16 20:44:44;;;;;;;3.20;2.50;;;;;;;21.56;45.19;101173.16;5026477;28;20052;-63
2021/03/16 20:47:10;;;;;;;3.35;2.13;;;;;;;21.62;45.44;101178.22;5026867;28;20121;-60
2021/03/16 20:51:22;;;;;;;5.15;2.72;;;;;;;21.81;45.40;101180.06;5076094;27;20393;-61
2021/03/16 20:53:47;;;;;;;4.80;2.75;;;;;;;21.78;45.49;101177.53;5079714;28;20031;-61
2021/03/16 20:56:13;;;;;;;2.97;2.22;;;;;;;21.74;45.44;101186.66;5074591;28;20101;-61
2021/03/16 20:58:40;;;;;;;3.40;2.42;;;;;;;21.74;45.57;101184.84;5079108;28;20089;-61
2021/03/16 21:01:06;;;;;;;4.18;2.55;;;;;;;21.74;45.64;101183.97;5072443;28;20457;-61
2021/03/16 21:03:31;;;;;;;5.72;2.80;;;;;;;21.72;45.68;101196.56;5077137;28;20028;-61
2021/03/16 21:05:56;;;;;;;4.28;2.55;;;;;;;21.71;45.70;101192.16;5077326;28;20028;-61
2021/03/16 21:08:22;;;;;;;7.38;2.63;;;;;;;21.70;45.85;101193.09;5051597;28;20414;-61
2021/03/16 21:10:47;;;;;;;4.88;2.45;;;;;;;21.71;45.82;101192.16;5035249;28;20431;-61
2021/03/16 21:13:13;;;;;;;5.78;2.45;;;;;;;21.69;45.85;101194.91;5040018;28;20036;-61
2021/03/16 21:15:39;;;;;;;5.05;2.63;;;;;;;21.70;45.83;101199.31;5030033;28;20053;-61
2021/03/16 21:18:04;;;;;;;3.72;2.10;;;;;;;21.69;45.86;101194.03;5035812;28;20035;-61
2021/03/16 21:20:30;;;;;;;5.47;2.80;;;;;;;21.65;45.89;101204.03;5038114;28;20021;-61
2021/03/16 21:22:57;;;;;;;4.50;2.50;;;;;;;21.60;46.03;101198.88;5040701;28;20087;-61
2021/03/16 21:25:22;;;;;;;4.00;2.53;;;;;;;21.59;46.03;101196.28;5036265;28;20024;-61
2021/03/16 21:27:48;;;;;;;4.68;2.25;;;;;;;21.58;46.00;101200.78;5040703;28;20033;-61
2021/03/16 21:30:17;;;;;;;4.38;2.20;;;;;;;21.55;46.11;101200.94;5043100;28;20021;-61
2021/03/16 21:32:43;;;;;;;3.90;2.53;;;;;;;21.55;45.93;101206.31;5039321;28;20029;-61
2021/03/16 21:35:11;;;;;;;2.78;2.00;;;;;;;21.53;46.03;101202.81;5040705;28;20029;-61
2021/03/16 21:37:36;;;;;;;2.47;1.70;;;;;;;21.50;46.14;101209.19;5041563;28;20017;-61
2021/03/16 21:40:04;;;;;;;4.22;2.08;;;;;;;21.51;46.13;101212.75;5041077;28;20018;-61
2021/03/16 21:42:29;;;;;;;4.57;2.50;;;;;;;21.51;46.16;101215.44;5042380;28;20030;-61
2021/03/16 21:44:54;;;;;;;3.60;1.90;;;;;;;21.50;46.14;101219.03;5037505;28;20116;-61
2021/03/16 21:47:20;;;;;;;3.15;2.30;;;;;;;21.47;46.22;101220.06;5043483;28;20131;-61
2021/03/16 21:49:45;;;;;;;2.53;2.08;;;;;;;21.46;46.32;101218.31;5033539;28;20108;-61
2021/03/16 21:52:10;;;;;;;3.05;2.17;;;;;;;21.46;46.28;101217.44;5042436;28;20406;-61
2021/03/16 21:54:36;;;;;;;4.15;2.72;;;;;;;21.44;46.28;101225.56;5039287;28;20478;-61
2021/03/16 21:57:01;;;;;;;2.72;2.42;;;;;;;21.41;46.47;101221.22;5039413;28;20637;-61
2021/03/16 21:59:26;;;;;;;3.42;2.10;;;;;;;21.43;46.31;101228.31;5041219;28;20525;-61
2021/03/16 22:01:52;;;;;;;4.15;2.10;;;;;;;21.39;46.36;101227.59;5034081;28;20076;-61
2021/03/16 22:04:18;;;;;;;3.75;2.42;;;;;;;21.39;46.40;101225.81;5023643;28;20409;-61
2021/03/16 22:06:43;;;;;;;3.60;2.42;;;;;;;21.38;46.20;101232.09;5018717;28;20036;-61
2021/03/16 22:09:09;;;;;;;1.92;1.77;;;;;;;21.37;46.50;101227.66;5021129;28;20099;-61
2021/03/16 22:11:34;;;;;;;3.95;2.20;;;;;;;21.35;46.50;101234.94;5027135;28;20128;-61
2021/03/16 22:14:00;;;;;;;4.28;2.30;;;;;;;21.34;46.82;101230.47;5023086;28;20032;-61
2021/03/16 22:16:25;;;;;;;2.75;1.88;;;;;;;21.33;46.47;101242.16;5025367;28;20038;-61
2021/03/16 22:18:50;;;;;;;2.92;2.22;;;;;;;21.33;46.54;101243.97;5023194;28;20038;-61
2021/03/16 22:21:16;;;;;;;1.85;1.65;;;;;;;21.32;46.66;101237.75;5027782;28;20022;-61
2021/03/16 22:23:41;;;;;;;3.63;2.42;;;;;;;21.31;46.49;101244.06;5023784;28;20502;-61
2021/03/16 22:26:06;;;;;;;3.90;2.67;;;;;;;21.31;46.54;101246.75;5026355;28;20029;-61
2021/03/16 22:28:31;;;;;;;2.97;2.53;;;;;;;21.28;46.61;101239.69;5019028;28;20036;-61
2021/03/16 22:30:57;;;;;;;3.42;1.73;;;;;;;21.29;46.66;101232.53;5042523;28;20029;-61
2021/03/16 22:33:22;;;;;;;3.90;2.63;;;;;;;21.28;46.66;101246.88;5027130;28;20072;-61
2021/03/16 22:35:47;;;;;;;2.75;2.17;;;;;;;21.26;46.67;101238.00;5051531;22;20109;-61
2021/03/16 22:38:13;;;;;;;2.13;1.70;;;;;;;21.25;46.83;101237.16;4966575;28;20042;-61
2021/03/16 22:40:38;;;;;;;2.25;2.00;;;;;;;21.26;46.79;101243.38;4964706;28;20030;-62
2021/03/16 22:43:03;;;;;;;3.42;2.38;;;;;;;21.24;46.75;101240.75;4964001;28;20507;-62
2021/03/16 22:45:29;;;;;;;2.33;1.85;;;;;;;21.25;46.74;101236.28;4960228;28;20031;-61
2021/03/16 22:47:54;;;;;;;1.88;1.60;;;;;;;21.23;46.82;101244.41;4955411;28;20027;-62
2021/03/16 22:50:19;;;;;;;4.50;1.83;;;;;;;21.24;46.78;101239.91;4967554;28;20011;-62
2021/03/16 22:52:45;;;;;;;3.03;2.08;;;;;;;21.23;46.77;101239.03;4965504;28;20389;-63
2021/03/16 22:55:10;;;;;;;2.45;2.05;;;;;;;21.22;46.79;101239.09;4957835;28;20035;-62
2021/03/16 22:57:36;;;;;;;3.65;2.30;;;;;;;21.20;46.78;101235.63;4959555;28;20038;-62
2021/03/16 23:00:08;;;;;;;2.63;2.13;;;;;;;21.21;46.84;101242.72;4959853;28;20083;-62
2021/03/16 23:02:33;;;;;;;2.55;2.22;;;;;;;21.20;46.81;101244.53;4956399;28;20023;-62
2021/03/16 23:04:59;;;;;;;2.63;2.10;;;;;;;21.19;46.86;101241.91;4960882;28;20035;-62
2021/03/16 23:07:24;;;;;;;2.70;2.08;;;;;;;21.20;46.90;101238.31;4958471;28;20015;-62
2021/03/16 23:09:49;;;;;;;1.98;1.63;;;;;;;21.17;46.88;101241.97;4966413;28;20046;-62
2021/03/16 23:12:15;;;;;;;4.40;2.05;;;;;;;21.18;46.77;101235.69;4959337;28;20388;-62
2021/03/16 23:14:41;;;;;;;3.25;2.08;;;;;;;21.18;46.94;101240.19;4958513;28;20034;-61
2021/03/16 23:17:07;;;;;;;2.45;1.60;;;;;;;21.17;47.08;101247.34;4936722;28;20055;-61
2021/03/16 23:19:32;;;;;;;2.90;2.15;;;;;;;21.13;46.92;101243.94;4959376;28;20054;-62
2021/03/16 23:21:57;;;;;;;2.38;2.10;;;;;;;21.16;46.91;101240.25;4956589;28;20030;-61
2021/03/16 23:24:23;;;;;;;2.17;1.98;;;;;;;21.14;46.82;101237.63;4953486;28;20074;-62
2021/03/16 23:26:48;;;;;;;2.85;2.25;;;;;;;21.14;46.80;101245.69;4955335;28;20030;-62
2021/03/16 23:29:13;;;;;;;2.85;1.60;;;;;;;21.13;46.92;101238.56;4956448;28;20038;-61
2021/03/16 23:31:41;;;;;;;2.17;1.98;;;;;;;21.12;47.10;101236.84;4956957;28;20038;-61
2021/03/16 23:34:06;;;;;;;1.77;1.67;;;;;;;21.12;47.02;101234.16;4953873;28;20023;-62
2021/03/16 23:36:32;;;;;;;2.03;1.77;;;;;;;21.12;46.97;101234.16;4956762;28;20027;-62
2021/03/16 23:38:57;;;;;;;3.00;1.92;;;;;;;21.10;47.03;101227.97;4957760;28;20018;-62
2021/03/16 23:41:23;;;;;;;3.28;2.03;;;;;;;21.08;47.00;101229.88;4952110;28;20501;-62
2021/03/16 23:43:48;;;;;;;2.67;2.42;;;;;;;21.08;47.03;101234.38;4955613;28;20042;-62
2021/03/16 23:46:13;;;;;;;2.63;1.92;;;;;;;21.08;47.05;101229.00;4952591;28;20099;-61
2021/03/16 23:48:39;;;;;;;2.53;2.08;;;;;;;21.07;47.07;101232.63;4954667;28;20034;-62
2021/03/16 23:51:06;;;;;;;4.25;2.75;;;;;;;21.07;47.12;101228.13;4955489;28;20031;-62
2021/03/16 23:53:36;;;;;;;1.60;1.50;;;;;;;21.08;47.11;101234.38;4954482;28;20031;-61
2021/03/16 23:56:03;;;;;;;2.78;1.73;;;;;;;21.08;47.05;101227.19;4956944;28;20033;-62
2021/03/16 23:58:28;;;;;;;1.55;1.45;;;;;;;21.08;47.04;101229.88;4957632;28;20063;-62
